Time;durP1;ratioP1;P1;durP2;ratioP2;P2;SDS_P1;SDS_P2;PMS_P1;PMS_P2;Temp;Humidity;BMP_temperature;BMP_pressure;BME280_temperature;BME280_humidity;BME280_pressure;Samples;Min_cycle;Max_cycle;Signal;HPM_P1;HPM_P2
2021/06/29 00:00:55;;;;;;;3.92;2.80;;;20.70;99.90;;;;;;5022849;28;20021;-80
2021/06/29 00:03:20;;;;;;;21.50;10.18;;;19.70;99.90;;;;;;5019549;28;20058;-81
2021/06/29 00:05:47;;;;;;;6.00;3.20;;;19.60;99.90;;;;;;5018666;28;20029;-78
2021/06/29 00:08:13;;;;;;;4.90;2.75;;;19.60;99.90;;;;;;5002415;28;21574;-80
2021/06/29 00:10:39;;;;;;;4.22;2.55;;;19.60;99.90;;;;;;5018703;28;20510;-79
2021/06/29 00:13:05;;;;;;;4.55;3.17;;;19.50;99.90;;;;;;5008515;28;20049;-80
2021/06/29 00:15:31;;;;;;;4.32;2.60;;;;;;;;;;5022434;28;20021;-79
2021/06/29 00:17:57;;;;;;;3.50;2.80;;;19.50;99.90;;;;;;5017280;28;20041;-80
2021/06/29 00:20:23;;;;;;;5.05;2.60;;;19.60;99.90;;;;;;4999773;28;20021;-78
2021/06/29 00:22:49;;;;;;;3.50;2.53;;;19.60;99.90;;;;;;5004439;28;20041;-79
2021/06/29 00:25:17;;;;;;;3.72;2.47;;;19.60;99.90;;;;;;4998991;28;20030;-78
2021/06/29 00:27:43;;;;;;;5.18;2.70;;;19.70;99.90;;;;;;5017621;28;20038;-77
2021/06/29 00:30:09;;;;;;;3.95;2.60;;;20.80;99.90;;;;;;4999062;28;20087;-79
2021/06/29 00:32:36;;;;;;;11.05;5.57;;;19.60;99.90;;;;;;5020897;28;20036;-80
2021/06/29 00:35:02;;;;;;;4.47;2.83;;;19.90;99.90;;;;;;4997454;28;20018;-80
2021/06/29 00:37:28;;;;;;;4.50;2.75;;;19.60;99.90;;;;;;5022298;28;20030;-80
2021/06/29 00:39:54;;;;;;;4.43;2.72;;;21.30;99.90;;;;;;5023537;28;20073;-79
2021/06/29 00:42:19;;;;;;;4.13;2.83;;;21.30;99.90;;;;;;5008730;28;20026;-77
2021/06/29 00:44:46;;;;;;;3.70;2.60;;;;;;;;;;5003899;28;20045;-78
2021/06/29 00:47:12;;;;;;;5.97;3.10;;;19.50;99.90;;;;;;5021787;28;20045;-79
2021/06/29 00:49:38;;;;;;;5.70;2.67;;;19.50;99.90;;;;;;5006068;28;20036;-77
2021/06/29 00:52:14;;;;;;;3.95;2.70;;;19.50;99.90;;;;;;5006876;28;20037;-78
2021/06/29 00:54:41;;;;;;;3.88;2.58;;;19.50;99.90;;;;;;5020731;28;20088;-78
2021/06/29 00:57:09;;;;;;;3.00;2.30;;;19.60;99.90;;;;;;5003423;28;20049;-79
2021/06/29 00:59:36;;;;;;;3.95;2.60;;;19.50;99.90;;;;;;5001961;28;20618;-78
2021/06/29 01:02:02;;;;;;;4.47;2.47;;;19.50;99.90;;;;;;5010165;28;20044;-78
2021/06/29 01:04:28;;;;;;;6.50;2.70;;;19.50;99.90;;;;;;5002640;28;20026;-79
2021/06/29 01:06:53;;;;;;;6.28;2.88;;;19.70;99.90;;;;;;5014745;28;20026;-77
2021/06/29 01:09:20;;;;;;;5.10;2.30;;;20.20;99.90;;;;;;5013746;28;20496;-79
2021/06/29 01:11:46;;;;;;;3.65;2.50;;;19.50;99.90;;;;;;5007437;28;20485;-80
2021/06/29 01:14:14;;;;;;;3.38;2.55;;;19.50;99.90;;;;;;5012940;28;20068;-81
2021/06/29 01:16:41;;;;;;;4.93;2.65;;;19.50;99.90;;;;;;4998016;28;20569;-78
2021/06/29 01:19:07;;;;;;;3.90;2.33;;;19.40;99.90;;;;;;5003670;28;20121;-80
2021/06/29 01:21:38;;;;;;;4.05;2.40;;;19.40;99.90;;;;;;5020828;28;20120;-79
2021/06/29 01:24:08;;;;;;;4.70;2.67;;;19.30;99.90;;;;;;4998244;28;20033;-79
2021/06/29 01:26:37;;;;;;;3.17;2.60;;;19.40;99.90;;;;;;4996586;28;20030;-79
2021/06/29 01:29:04;;;;;;;4.40;2.63;;;19.50;99.90;;;;;;5004520;28;20028;-79
2021/06/29 01:31:33;;;;;;;4.15;2.65;;;19.30;99.90;;;;;;5012205;28;20028;-77
2021/06/29 01:33:58;;;;;;;3.13;2.50;;;19.30;99.90;;;;;;5000014;28;20084;-78
2021/06/29 01:36:33;;;;;;;4.60;2.50;;;19.20;99.90;;;;;;5003968;28;20038;-78
2021/06/29 01:38:59;;;;;;;3.53;2.88;;;;;;;;;;5021664;28;20041;-79
2021/06/29 01:41:26;;;;;;;3.97;2.75;;;19.20;99.90;;;;;;5001510;28;20026;-79
2021/06/29 01:43:55;;;;;;;5.28;2.72;;;19.20;99.90;;;;;;5003556;28;20382;-80
2021/06/29 01:46:23;;;;;;;3.87;2.70;;;19.20;99.90;;;;;;5017131;28;20166;-79
2021/06/29 01:48:51;;;;;;;3.53;2.33;;;19.20;99.90;;;;;;4999857;28;20550;-79
2021/06/29 01:51:18;;;;;;;4.18;2.70;;;19.20;99.90;;;;;;5002236;28;20084;-79
2021/06/29 01:53:46;;;;;;;3.85;2.65;;;19.20;99.90;;;;;;5000351;28;20566;-78
2021/06/29 01:56:15;;;;;;;3.70;2.80;;;19.30;99.90;;;;;;5018390;28;21959;-79
2021/06/29 01:58:42;;;;;;;3.45;2.65;;;19.20;99.90;;;;;;5015970;28;20022;-78
2021/06/29 02:01:08;;;;;;;3.95;2.95;;;19.20;99.90;;;;;;5022034;28;20117;-79
2021/06/29 02:03:34;;;;;;;4.15;2.72;;;19.20;99.90;;;;;;5014896;28;20058;-78
2021/06/29 02:06:00;;;;;;;3.85;2.60;;;19.20;99.90;;;;;;5018043;28;20030;-79
2021/06/29 02:08:25;;;;;;;4.47;3.65;;;19.20;99.90;;;;;;5020490;28;20034;-78
2021/06/29 02:10:51;;;;;;;4.88;3.80;;;19.20;99.90;;;;;;5006102;28;20034;-78
2021/06/29 02:13:17;;;;;;;4.47;3.58;;;19.30;99.90;;;;;;5004730;28;20026;-79
2021/06/29 02:15:42;;;;;;;4.65;3.33;;;19.90;99.90;;;;;;4998190;28;20402;-79
2021/06/29 02:18:08;;;;;;;4.63;3.30;;;19.20;99.90;;;;;;5014583;28;20120;-79
2021/06/29 02:20:33;;;;;;;5.97;3.20;;;19.20;99.90;;;;;;5016335;28;21182;-77
2021/06/29 02:22:59;;;;;;;4.05;3.08;;;19.20;99.90;;;;;;5000138;28;20065;-79
2021/06/29 02:25:25;;;;;;;5.07;2.75;;;19.20;99.90;;;;;;5018554;28;20030;-79
2021/06/29 02:27:50;;;;;;;8.38;3.40;;;19.20;99.90;;;;;;5012505;28;20098;-79
2021/06/29 02:30:17;;;;;;;5.88;3.08;;;19.20;99.90;;;;;;5000489;28;20080;-79
2021/06/29 02:32:43;;;;;;;4.80;2.88;;;19.00;99.90;;;;;;5013807;28;20076;-77
2021/06/29 02:35:09;;;;;;;5.15;3.45;;;18.90;99.90;;;;;;5006975;28;20033;-79
2021/06/29 02:37:35;;;;;;;5.45;3.10;;;19.00;99.90;;;;;;5019824;28;20034;-78
2021/06/29 02:40:00;;;;;;;5.03;3.60;;;19.00;99.90;;;;;;4995582;28;20022;-79
2021/06/29 02:42:26;;;;;;;4.75;3.03;;;;;;;;;;4997849;28;20031;-79
2021/06/29 02:44:52;;;;;;;6.82;3.22;;;18.80;99.90;;;;;;5020237;28;20376;-79
2021/06/29 02:47:18;;;;;;;5.15;3.58;;;18.80;99.90;;;;;;5015478;28;20037;-77
2021/06/29 02:49:43;;;;;;;6.10;3.20;;;18.80;99.90;;;;;;5017093;28;20033;-79
2021/06/29 02:52:10;;;;;;;5.95;4.00;;;18.80;99.90;;;;;;5010526;28;20105;-78
2021/06/29 02:54:36;;;;;;;3.90;3.00;;;;;;;;;;5016905;28;20058;-77
2021/06/29 02:57:02;;;;;;;3.65;2.88;;;;;;;;;;5025751;28;20029;-79
2021/06/29 02:59:28;;;;;;;5.28;3.15;;;18.70;99.90;;;;;;5021181;28;20033;-79
2021/06/29 03:01:53;;;;;;;3.75;2.70;;;18.80;99.90;;;;;;5009848;28;20030;-78
2021/06/29 03:04:19;;;;;;;3.70;2.95;;;18.80;99.90;;;;;;5015100;28;20037;-79
2021/06/29 03:06:45;;;;;;;6.75;3.22;;;18.80;99.90;;;;;;5002986;28;20048;-78
2021/06/29 03:09:10;;;;;;;4.90;3.00;;;20.30;99.90;;;;;;4999388;28;20507;-79
2021/06/29 03:11:37;;;;;;;4.85;2.90;;;18.80;99.90;;;;;;5016954;28;20117;-79
2021/06/29 03:14:04;;;;;;;4.85;2.97;;;19.10;99.90;;;;;;5016068;28;20052;-79
2021/06/29 03:16:30;;;;;;;5.55;3.15;;;;;;;;;;5006918;28;20030;-79
2021/06/29 03:18:56;;;;;;;3.88;3.22;;;18.70;99.90;;;;;;5010120;28;20030;-78
2021/06/29 03:21:23;;;;;;;5.25;2.88;;;18.70;99.90;;;;;;5008213;28;20032;-80
2021/06/29 03:23:49;;;;;;;5.75;3.15;;;18.70;99.90;;;;;;5010423;28;20036;-78
2021/06/29 03:26:14;;;;;;;4.30;2.97;;;20.40;99.90;;;;;;5012365;28;20027;-79
2021/06/29 03:28:40;;;;;;;3.92;3.13;;;18.80;99.90;;;;;;5011732;28;20018;-79
2021/06/29 03:31:06;;;;;;;4.03;3.45;;;18.70;99.90;;;;;;5020486;28;20213;-79
2021/06/29 03:33:31;;;;;;;5.32;3.42;;;18.70;99.90;;;;;;5015266;28;20109;-79
2021/06/29 03:35:57;;;;;;;4.28;3.42;;;18.70;99.90;;;;;;5001703;28;20026;-78
2021/06/29 03:38:23;;;;;;;6.75;3.85;;;18.70;99.90;;;;;;5008662;28;20030;-78
2021/06/29 03:40:48;;;;;;;3.92;3.10;;;18.60;99.90;;;;;;5005571;28;20047;-78
2021/06/29 03:43:14;;;;;;;5.60;3.05;;;19.10;99.90;;;;;;5006107;28;20061;-78
2021/06/29 03:45:39;;;;;;;4.95;3.38;;;18.90;99.90;;;;;;5006247;28;20029;-77
2021/06/29 03:48:05;;;;;;;6.82;3.15;;;18.50;99.90;;;;;;5016558;28;20061;-79
2021/06/29 03:50:31;;;;;;;7.18;4.03;;;18.50;99.90;;;;;;5019132;28;20026;-79
2021/06/29 03:52:57;;;;;;;4.90;3.40;;;18.50;99.90;;;;;;5019836;28;20018;-79
2021/06/29 03:55:22;;;;;;;4.78;3.38;;;18.50;99.90;;;;;;5006253;28;20026;-79
2021/06/29 03:57:49;;;;;;;4.65;3.55;;;18.60;99.90;;;;;;5006453;28;20037;-79
2021/06/29 04:00:15;;;;;;;6.50;3.67;;;18.60;99.90;;;;;;5000996;28;20452;-80
2021/06/29 04:02:40;;;;;;;5.65;3.90;;;18.50;99.90;;;;;;5018450;28;20032;-79
2021/06/29 04:05:07;;;;;;;6.22;3.60;;;18.50;99.90;;;;;;4999635;28;20404;-79
2021/06/29 04:07:34;;;;;;;6.03;3.45;;;18.50;99.90;;;;;;5001860;28;20092;-78
2021/06/29 04:10:00;;;;;;;7.25;3.50;;;19.30;99.90;;;;;;5008386;28;20484;-79
2021/06/29 04:12:29;;;;;;;5.07;3.38;;;18.40;99.90;;;;;;5021570;28;20030;-80
2021/06/29 04:14:54;;;;;;;5.05;3.38;;;18.40;99.90;;;;;;5018926;28;20029;-79
2021/06/29 04:17:20;;;;;;;4.68;3.15;;;18.40;99.90;;;;;;5005098;28;20040;-78
2021/06/29 04:19:45;;;;;;;7.70;3.60;;;19.10;99.90;;;;;;5002080;28;20038;-81
2021/06/29 04:22:11;;;;;;;5.00;3.38;;;19.10;99.90;;;;;;5019813;28;20048;-78
2021/06/29 04:24:37;;;;;;;4.65;3.42;;;18.40;99.90;;;;;;5002546;28;20499;-79
2021/06/29 04:27:03;;;;;;;6.60;3.53;;;18.50;99.90;;;;;;5015123;28;20034;-79
2021/06/29 04:29:29;;;;;;;6.78;3.78;;;18.60;99.90;;;;;;5016772;28;20026;-79
2021/06/29 04:31:55;;;;;;;5.72;3.60;;;18.60;99.90;;;;;;4999986;28;20041;-80
2021/06/29 04:34:20;;;;;;;6.75;3.45;;;19.10;99.90;;;;;;5001379;28;21771;-76
2021/06/29 04:36:46;;;;;;;6.18;3.80;;;18.70;99.90;;;;;;4995264;28;20076;-78
2021/06/29 04:39:12;;;;;;;7.13;3.28;;;18.80;99.90;;;;;;5004839;28;20387;-78
2021/06/29 04:41:38;;;;;;;7.35;3.55;;;20.10;99.90;;;;;;5010971;28;20689;-79
2021/06/29 04:44:05;;;;;;;8.02;3.85;;;18.70;99.90;;;;;;5013238;28;20628;-79
2021/06/29 04:46:31;;;;;;;5.45;3.55;;;18.80;99.90;;;;;;5010023;28;20064;-79
2021/06/29 04:48:57;;;;;;;5.22;3.60;;;18.80;99.90;;;;;;5012284;28;20061;-78
2021/06/29 04:51:22;;;;;;;5.97;3.55;;;18.80;99.90;;;;;;5003123;28;20029;-79
2021/06/29 04:53:48;;;;;;;7.85;4.03;;;19.50;99.90;;;;;;5000774;28;20423;-78
2021/06/29 04:56:17;;;;;;;7.35;3.35;;;18.70;99.90;;;;;;5023951;28;20022;-78
2021/06/29 04:58:50;;;;;;;8.63;4.15;;;18.80;99.90;;;;;;5023849;28;20030;-79
2021/06/29 05:01:16;;;;;;;11.00;4.78;;;18.70;99.90;;;;;;5014233;28;20041;-78
2021/06/29 05:03:42;;;;;;;5.20;3.55;;;20.00;99.90;;;;;;5006883;28;20435;-79
2021/06/29 05:06:07;;;;;;;12.90;4.45;;;18.80;99.90;;;;;;5021274;28;20033;-78
2021/06/29 05:08:33;;;;;;;11.68;4.10;;;18.80;99.90;;;;;;4994893;28;20518;-80
2021/06/29 05:11:02;;;;;;;6.22;3.75;;;18.90;99.90;;;;;;5002120;28;20109;-78
2021/06/29 05:13:27;;;;;;;5.28;3.25;;;19.00;99.90;;;;;;5015061;28;20022;-79
2021/06/29 05:15:54;;;;;;;4.68;2.60;;;19.70;99.90;;;;;;5006466;28;20503;-78
2021/06/29 05:18:19;;;;;;;4.57;2.92;;;20.80;99.90;;;;;;5040928;28;20528;-78
2021/06/29 05:20:45;;;;;;;3.60;3.17;;;19.10;99.90;;;;;;5002329;28;20030;-79
2021/06/29 05:23:11;;;;;;;4.55;2.92;;;19.20;99.90;;;;;;5024435;28;20547;-78
2021/06/29 05:25:36;;;;;;;6.28;2.92;;;20.20;99.90;;;;;;5024247;28;20541;-81
2021/06/29 05:28:02;;;;;;;5.90;3.33;;;19.50;99.90;;;;;;5023133;28;20030;-78
2021/06/29 05:30:28;;;;;;;5.75;2.85;;;20.00;99.90;;;;;;5025179;28;20026;-78
2021/06/29 05:32:54;;;;;;;3.42;2.50;;;20.10;99.90;;;;;;5020201;28;20126;-77
2021/06/29 05:35:20;;;;;;;4.55;2.88;;;20.50;99.90;;;;;;5024492;28;20022;-80
2021/06/29 05:37:46;;;;;;;5.30;3.08;;;20.70;99.90;;;;;;5007440;28;20037;-78
2021/06/29 05:40:12;;;;;;;5.30;2.80;;;21.20;99.90;;;;;;5014207;28;20511;-78
2021/06/29 05:42:37;;;;;;;3.80;2.90;;;21.00;99.90;;;;;;5018910;28;20050;-78
2021/06/29 05:45:05;;;;;;;6.95;2.90;;;22.60;99.90;;;;;;5030309;28;20041;-78
2021/06/29 05:47:33;;;;;;;5.97;3.13;;;21.20;99.90;;;;;;5022635;28;20088;-78
2021/06/29 05:49:59;;;;;;;6.40;3.00;;;21.10;99.90;;;;;;5012113;28;20029;-79
2021/06/29 05:52:25;;;;;;;3.88;2.42;;;21.30;99.90;;;;;;5009188;28;20141;-76
2021/06/29 05:54:51;;;;;;;5.38;2.75;;;21.50;99.90;;;;;;5028221;28;20034;-76
2021/06/29 05:57:17;;;;;;;3.80;2.28;;;21.80;99.90;;;;;;5023303;28;20133;-78
2021/06/29 05:59:43;;;;;;;6.70;2.20;;;22.10;99.90;;;;;;5005248;28;20121;-78
2021/06/29 06:02:10;;;;;;;4.53;2.50;;;22.50;99.20;;;;;;5000581;28;20587;-78
2021/06/29 06:04:36;;;;;;;4.00;2.38;;;22.80;99.70;;;;;;5000207;28;20348;-78
2021/06/29 06:07:03;;;;;;;4.95;2.30;;;22.70;98.70;;;;;;5007015;28;20026;-78
2021/06/29 06:09:28;;;;;;;3.75;1.92;;;22.60;98.30;;;;;;5005999;28;20052;-78
2021/06/29 06:11:54;;;;;;;5.20;1.85;;;22.90;97.50;;;;;;5006109;28;20481;-79
2021/06/29 06:14:20;;;;;;;3.83;2.30;;;22.60;97.50;;;;;;5010016;28;20036;-80
2021/06/29 06:16:46;;;;;;;4.55;1.92;;;21.90;98.80;;;;;;5005496;28;20057;-80
2021/06/29 06:19:11;;;;;;;10.77;2.63;;;22.00;98.40;;;;;;5005537;28;20035;-80
2021/06/29 06:21:37;;;;;;;8.77;2.28;;;22.20;97.90;;;;;;5013786;28;20064;-80
2021/06/29 06:24:03;;;;;;;4.00;1.92;;;22.40;97.40;;;;;;5013748;28;20038;-80
2021/06/29 06:26:28;;;;;;;3.67;1.50;;;22.80;96.90;;;;;;5009781;28;20033;-78
2021/06/29 06:28:54;;;;;;;2.70;1.60;;;22.60;96.70;;;;;;5010930;28;20019;-79
2021/06/29 06:31:19;;;;;;;3.05;1.73;;;22.40;97.00;;;;;;5017966;28;20046;-81
2021/06/29 06:33:45;;;;;;;3.85;1.70;;;;;;;;;;5013191;28;20018;-82
2021/06/29 06:36:11;;;;;;;2.95;1.58;;;22.30;96.90;;;;;;5032650;28;20034;-82
2021/06/29 06:38:37;;;;;;;3.80;1.60;;;22.40;97.20;;;;;;5014936;28;20036;-81
2021/06/29 06:41:03;;;;;;;3.20;1.60;;;22.20;97.10;;;;;;5031234;28;20048;-81
2021/06/29 06:43:29;;;;;;;4.13;1.77;;;22.30;97.00;;;;;;5012783;28;20030;-82
2021/06/29 06:45:54;;;;;;;6.00;1.50;;;22.30;96.90;;;;;;5011171;28;20033;-82
2021/06/29 06:48:20;;;;;;;2.83;1.50;;;22.50;96.50;;;;;;5008660;28;20037;-81
2021/06/29 06:50:46;;;;;;;3.05;1.38;;;22.90;96.20;;;;;;5020533;28;20025;-81
2021/06/29 06:53:13;;;;;;;4.32;1.48;;;22.70;95.70;;;;;;5011878;28;20034;-81
2021/06/29 06:55:39;;;;;;;3.13;1.48;;;22.70;95.10;;;;;;4999854;28;20045;-79
2021/06/29 06:58:05;;;;;;;2.83;1.60;;;22.60;94.80;;;;;;5009958;28;20026;-79
2021/06/29 07:00:30;;;;;;;4.85;2.00;;;22.60;94.50;;;;;;5032190;28;20038;-79
2021/06/29 07:02:56;;;;;;;3.80;1.40;;;22.90;92.80;;;;;;5031548;28;20065;-79
2021/06/29 07:05:22;;;;;;;3.92;1.80;;;22.80;92.70;;;;;;5014030;28;20035;-79
2021/06/29 07:07:48;;;;;;;3.10;1.50;;;22.50;93.10;;;;;;5008926;28;20049;-79
2021/06/29 07:10:14;;;;;;;3.33;1.55;;;22.30;93.40;;;;;;5007897;28;20130;-82
2021/06/29 07:12:39;;;;;;;4.32;1.60;;;22.00;94.40;;;;;;5001084;28;20068;-80
2021/06/29 07:15:06;;;;;;;4.82;1.58;;;21.90;94.80;;;;;;5003705;28;20045;-79
2021/06/29 07:17:36;;;;;;;2.47;1.52;;;21.70;94.90;;;;;;5020033;28;20423;-80
2021/06/29 07:20:05;;;;;;;2.60;1.50;;;21.80;95.20;;;;;;5025901;28;20022;-79
2021/06/29 07:22:30;;;;;;;4.38;1.80;;;21.90;94.30;;;;;;5019705;28;20045;-81
2021/06/29 07:24:56;;;;;;;2.20;1.27;;;22.00;94.80;;;;;;5012422;28;20116;-79
2021/06/29 07:27:21;;;;;;;3.22;1.45;;;22.10;94.90;;;;;;5003932;28;20037;-78
2021/06/29 07:29:47;;;;;;;3.67;1.38;;;;;;;;;;5006615;28;20018;-81
2021/06/29 07:32:13;;;;;;;4.85;1.42;;;22.20;94.50;;;;;;5016621;28;20280;-80
2021/06/29 07:34:38;;;;;;;3.00;1.45;;;22.30;93.30;;;;;;5024062;28;20099;-81
2021/06/29 07:37:05;;;;;;;3.17;1.55;;;22.30;94.00;;;;;;5012793;28;20044;-79
2021/06/29 07:39:30;;;;;;;2.85;1.58;;;22.40;94.60;;;;;;5009157;28;20494;-80
2021/06/29 07:41:56;;;;;;;3.30;1.70;;;22.40;94.60;;;;;;5016366;28;20061;-80
2021/06/29 07:44:22;;;;;;;4.38;1.60;;;22.20;95.00;;;;;;5005904;28;21306;-82
2021/06/29 07:46:47;;;;;;;4.93;1.77;;;22.00;95.20;;;;;;5021361;28;20053;-80
2021/06/29 07:49:13;;;;;;;3.25;1.45;;;22.00;95.00;;;;;;5017774;28;20118;-81
2021/06/29 07:51:39;;;;;;;5.43;2.05;;;22.00;95.10;;;;;;5010728;28;20029;-79
2021/06/29 07:54:05;;;;;;;3.58;1.73;;;22.20;95.00;;;;;;5022221;28;20025;-81
2021/06/29 07:56:30;;;;;;;3.38;1.75;;;22.20;94.90;;;;;;5006724;28;20026;-79
2021/06/29 07:58:56;;;;;;;2.17;1.52;;;22.30;94.50;;;;;;5023382;28;20056;-84
2021/06/29 08:01:22;;;;;;;2.38;1.48;;;22.40;94.60;;;;;;5012409;28;20580;-81
2021/06/29 08:03:47;;;;;;;3.95;1.40;;;22.40;93.70;;;;;;5023157;28;20032;-81
2021/06/29 08:06:14;;;;;;;3.47;1.60;;;22.50;93.80;;;;;;5011193;28;20030;-80
2021/06/29 08:08:40;;;;;;;3.10;1.40;;;22.40;93.60;;;;;;5011608;28;20091;-80
2021/06/29 08:11:10;;;;;;;3.95;1.55;;;22.60;93.00;;;;;;5024910;28;20022;-81
2021/06/29 08:13:36;;;;;;;4.10;1.60;;;22.60;93.20;;;;;;5016129;28;20500;-84
2021/06/29 08:16:02;;;;;;;4.28;2.15;;;22.80;93.10;;;;;;5003993;28;20033;-80
2021/06/29 08:18:28;;;;;;;6.50;1.60;;;23.00;93.20;;;;;;5018793;28;20033;-80
2021/06/29 08:20:55;;;;;;;3.42;1.70;;;23.20;92.70;;;;;;5012879;28;20086;-81
2021/06/29 08:23:22;;;;;;;3.60;1.58;;;22.80;93.00;;;;;;5007009;28;20030;-80
2021/06/29 08:25:48;;;;;;;3.40;1.42;;;23.50;93.30;;;;;;5014592;28;20034;-79
2021/06/29 08:28:14;;;;;;;4.32;1.35;;;23.10;93.00;;;;;;5015142;28;20049;-80
2021/06/29 08:30:40;;;;;;;5.45;1.48;;;23.10;92.80;;;;;;5009236;28;20108;-80
2021/06/29 08:33:11;;;;;;;2.17;1.20;;;23.20;92.30;;;;;;5001964;28;20032;-81
2021/06/29 08:35:46;;;;;;;2.08;1.20;;;23.40;92.20;;;;;;5022594;28;20130;-80
2021/06/29 08:38:13;;;;;;;5.60;1.85;;;23.70;91.60;;;;;;5026270;28;20575;-81
2021/06/29 08:40:39;;;;;;;2.60;1.40;;;24.00;90.90;;;;;;5024375;28;20061;-80
2021/06/29 08:43:06;;;;;;;5.45;1.30;;;24.00;90.60;;;;;;5006923;28;20029;-80
2021/06/29 08:45:32;;;;;;;2.42;1.30;;;24.20;89.90;;;;;;5001071;28;20026;-80
2021/06/29 08:47:59;;;;;;;3.45;1.58;;;24.20;90.00;;;;;;5003596;28;20096;-81
2021/06/29 08:50:29;;;;;;;2.85;1.35;;;24.40;90.30;;;;;;5010120;28;20049;-80
2021/06/29 08:52:56;;;;;;;;;;;24.60;89.20;;;;;;5009625;28;20024;-81
2021/06/29 08:55:26;;;;;;;2.70;1.35;;;24.70;88.60;;;;;;5016583;28;19914;-81
2021/06/29 08:57:52;;;;;;;2.95;1.50;;;24.90;87.90;;;;;;5015041;28;20029;-80
2021/06/29 09:00:18;;;;;;;6.38;1.40;;;24.90;87.10;;;;;;5025269;28;20049;-81
2021/06/29 09:02:44;;;;;;;2.30;1.20;;;24.90;86.70;;;;;;5029246;28;20030;-82
2021/06/29 09:05:23;;;;;;;3.40;1.38;;;24.70;86.80;;;;;;5011852;28;20108;-81
2021/06/29 09:08:10;;;;;;;3.93;1.50;;;24.70;87.30;;;;;;5015016;28;20025;-80
2021/06/29 09:10:38;;;;;;;2.38;1.30;;;24.60;85.70;;;;;;5002823;28;21209;-83
2021/06/29 09:13:05;;;;;;;2.95;1.50;;;24.70;86.30;;;;;;5006930;28;20298;-79
2021/06/29 09:15:45;;;;;;;2.35;1.15;;;24.70;86.10;;;;;;5004026;28;20034;-80
2021/06/29 09:18:20;;;;;;;4.35;1.77;;;24.90;85.50;;;;;;5000482;28;20598;-79
2021/06/29 09:20:58;;;;;;;3.95;1.90;;;24.60;85.80;;;;;;5004937;28;20033;-80
2021/06/29 09:23:28;;;;;;;2.92;1.23;;;24.80;85.20;;;;;;5009580;28;20030;-80
2021/06/29 09:25:57;;;;;;;3.17;1.50;;;24.70;84.90;;;;;;5007552;28;20451;-80
2021/06/29 09:28:27;;;;;;;4.70;1.73;;;24.50;86.00;;;;;;5002563;28;20046;-80
2021/06/29 09:30:55;;;;;;;3.00;1.42;;;24.60;85.80;;;;;;5022619;28;20036;-81
2021/06/29 09:33:26;;;;;;;2.72;1.48;;;24.70;85.90;;;;;;5009020;28;20021;-80
2021/06/29 09:35:54;;;;;;;2.85;1.67;;;24.70;84.90;;;;;;5025730;28;20082;-81
2021/06/29 09:38:23;;;;;;;3.40;1.33;;;24.50;84.20;;;;;;5012357;28;20192;-80
2021/06/29 09:40:54;;;;;;;6.60;1.40;;;24.50;84.70;;;;;;5013319;28;20042;-80
2021/06/29 09:43:21;;;;;;;3.53;1.38;;;24.40;85.60;;;;;;5016625;28;20576;-79
2021/06/29 09:45:51;;;;;;;2.65;1.20;;;24.40;85.70;;;;;;5019253;28;20344;-79
2021/06/29 09:48:18;;;;;;;3.58;1.50;;;24.10;85.50;;;;;;5003345;28;20034;-79
2021/06/29 09:50:49;;;;;;;3.33;1.52;;;24.10;86.30;;;;;;5013950;28;20137;-79
2021/06/29 09:53:24;;;;;;;12.00;2.40;;;23.80;87.70;;;;;;5007121;28;20022;-79
2021/06/29 09:55:52;;;;;;;3.20;1.50;;;23.80;88.10;;;;;;5003141;28;20030;-80
2021/06/29 09:58:19;;;;;;;2.80;1.48;;;23.70;89.90;;;;;;5017676;28;20525;-79
2021/06/29 10:00:48;;;;;;;2.70;1.40;;;23.50;90.30;;;;;;5003754;28;20034;-79
2021/06/29 10:03:19;;;;;;;6.50;1.45;;;23.40;90.90;;;;;;5007612;28;20687;-81
2021/06/29 10:05:45;;;;;;;3.45;1.30;;;23.40;90.70;;;;;;5004126;28;20049;-81
2021/06/29 10:08:20;;;;;;;3.13;1.50;;;23.30;90.80;;;;;;5006775;28;20036;-80
2021/06/29 10:10:46;;;;;;;3.38;1.40;;;23.30;90.90;;;;;;5006022;28;20030;-79
2021/06/29 10:13:17;;;;;;;6.20;2.10;;;23.30;91.20;;;;;;5020253;28;20105;-80
2021/06/29 10:15:43;;;;;;;3.40;1.70;;;23.50;91.10;;;;;;5002311;28;20037;-80
2021/06/29 10:18:09;;;;;;;3.95;1.40;;;23.30;91.00;;;;;;5022114;28;20053;-81
2021/06/29 10:20:53;;;;;;;14.40;8.82;;;23.20;91.20;;;;;;5002912;28;20033;-80
2021/06/29 10:23:20;;;;;;;6.97;1.83;;;23.30;91.50;;;;;;5019763;28;20065;-80
2021/06/29 10:25:46;;;;;;;13.23;2.47;;;23.30;91.00;;;;;;5010452;28;20076;-81
2021/06/29 10:28:17;;;;;;;7.35;1.65;;;23.20;91.40;;;;;;5010522;28;20030;-81
2021/06/29 10:30:44;;;;;;;3.03;1.38;;;23.20;91.50;;;;;;5001777;28;20427;-80
2021/06/29 10:33:11;;;;;;;2.40;1.40;;;23.00;91.60;;;;;;5010821;28;20463;-80
2021/06/29 10:35:38;;;;;;;5.18;1.17;;;22.90;92.10;;;;;;5005567;28;20034;-81
2021/06/29 10:38:08;;;;;;;2.30;1.60;;;22.90;91.90;;;;;;5007608;28;20442;-82
2021/06/29 10:40:34;;;;;;;6.90;1.52;;;;;;;;;;5002672;28;20526;-81
2021/06/29 10:43:01;;;;;;;4.20;1.52;;;;;;;;;;5004156;28;20080;-82
2021/06/29 10:45:38;;;;;;;4.22;1.67;;;22.70;92.30;;;;;;5018089;28;20033;-82
2021/06/29 10:48:22;;;;;;;3.00;1.58;;;22.80;93.00;;;;;;5023940;28;20037;-82
2021/06/29 10:50:53;;;;;;;3.28;1.70;;;22.70;99.90;;;;;;5011486;28;20050;-81
2021/06/29 10:53:46;;;;;;;5.40;2.97;;;22.60;93.80;;;;;;5009762;28;20507;-80
2021/06/29 10:56:17;;;;;;;4.63;2.38;;;22.40;95.10;;;;;;5014350;28;20396;-81
2021/06/29 10:58:50;;;;;;;4.20;1.85;;;22.40;95.70;;;;;;5022297;28;20068;-83
2021/06/29 11:01:26;;;;;;;7.35;4.00;;;22.30;96.90;;;;;;5009070;28;20113;-80
2021/06/29 11:03:53;;;;;;;3.97;2.00;;;;;;;;;;5016287;28;20125;-81
2021/06/29 11:06:35;;;;;;;5.75;2.05;;;22.10;98.40;;;;;;5010456;28;20804;-83
2021/06/29 11:09:01;;;;;;;5.20;2.75;;;21.90;98.60;;;;;;5019454;28;20090;-81
2021/06/29 11:11:32;;;;;;;3.35;2.25;;;21.60;99.60;;;;;;5005324;28;20474;-82
2021/06/29 11:13:58;;;;;;;3.20;1.77;;;;;;;;;;5021512;28;20113;-81
2021/06/29 11:16:49;;;;;;;5.57;2.00;;;21.20;99.90;;;;;;5021986;28;20033;-81
2021/06/29 11:19:14;;;;;;;3.88;2.03;;;21.10;99.90;;;;;;5028376;28;20037;-83
2021/06/29 11:21:40;;;;;;;5.40;2.50;;;20.90;99.90;;;;;;5023845;28;20034;-81
2021/06/29 11:24:37;;;;;;;6.38;2.72;;;20.80;99.90;;;;;;4999203;28;20030;-80
2021/06/29 11:27:03;;;;;;;6.03;2.67;;;20.80;99.90;;;;;;5002577;28;20157;-81
2021/06/29 11:29:40;;;;;;;5.95;2.60;;;20.50;99.90;;;;;;5022866;28;20053;-81
2021/06/29 11:32:25;;;;;;;5.03;2.58;;;20.50;99.90;;;;;;5013440;28;20469;-81
2021/06/29 11:34:51;;;;;;;7.93;3.35;;;20.20;99.90;;;;;;5027136;28;20029;-83
2021/06/29 11:37:16;;;;;;;4.88;2.50;;;20.20;99.90;;;;;;5014906;28;20407;-81
2021/06/29 11:39:42;;;;;;;4.25;2.65;;;20.20;99.90;;;;;;5007389;28;20168;-82
2021/06/29 11:42:19;;;;;;;5.88;2.70;;;21.80;99.90;;;;;;5008797;28;20030;-81
2021/06/29 11:44:48;;;;;;;6.38;2.80;;;20.20;99.90;;;;;;5019615;28;20026;-81
2021/06/29 11:47:21;;;;;;;6.88;3.10;;;20.00;99.90;;;;;;5005685;28;20038;-81
2021/06/29 11:50:00;;;;;;;11.98;7.22;;;20.20;99.90;;;;;;5007108;28;20038;-84
2021/06/29 11:52:33;;;;;;;4.72;2.95;;;20.20;99.90;;;;;;5022116;28;20033;-81
2021/06/29 11:55:17;;;;;;;7.78;2.95;;;20.30;99.90;;;;;;5002305;28;20022;-80
2021/06/29 11:57:51;;;;;;;6.93;3.22;;;20.40;99.90;;;;;;5000782;28;20093;-80
2021/06/29 12:00:21;;;;;;;7.43;3.45;;;21.00;99.90;;;;;;5005223;28;20098;-81
2021/06/29 12:02:48;;;;;;;6.50;3.17;;;20.50;99.90;;;;;;5022251;28;20140;-83
2021/06/29 12:05:25;;;;;;;3.92;3.17;;;20.50;99.90;;;;;;5007026;28;20038;-81
2021/06/29 12:08:03;;;;;;;4.47;3.25;;;20.50;99.90;;;;;;5025890;28;20348;-80
2021/06/29 12:10:36;;;;;;;4.70;3.10;;;20.50;99.90;;;;;;5028508;28;20026;-79
2021/06/29 12:13:07;;;;;;;4.10;3.08;;;20.50;99.90;;;;;;5012232;28;20508;-79
2021/06/29 12:15:39;;;;;;;5.30;3.20;;;20.60;99.90;;;;;;5009422;28;20098;-81
2021/06/29 12:18:09;;;;;;;5.13;3.05;;;20.60;99.90;;;;;;5022616;28;20428;-83
2021/06/29 12:20:50;;;;;;;5.35;3.30;;;20.50;99.90;;;;;;5009339;28;20026;-82
2021/06/29 12:23:25;;;;;;;5.40;3.50;;;20.30;99.90;;;;;;5013457;28;20041;-82
2021/06/29 12:26:00;;;;;;;5.22;3.15;;;20.30;99.90;;;;;;5019045;28;20101;-82
2021/06/29 12:28:29;;;;;;;4.45;3.45;;;20.30;99.90;;;;;;5012035;28;20141;-80
2021/06/29 12:31:00;;;;;;;5.57;3.20;;;20.20;99.90;;;;;;5008798;28;20034;-80
2021/06/29 12:33:34;;;;;;;5.50;3.20;;;20.10;99.90;;;;;;5007803;28;20510;-83
2021/06/29 12:36:05;;;;;;;4.57;3.28;;;20.10;99.90;;;;;;5008980;28;20018;-81
2021/06/29 12:38:34;;;;;;;3.47;1.95;;;19.80;99.90;;;;;;4999137;28;20033;-82
2021/06/29 12:41:30;;;;;;;10.40;2.45;;;19.60;99.90;;;;;;5005142;28;20088;-79
2021/06/29 12:44:01;;;;;;;3.50;1.52;;;19.60;99.90;;;;;;5018673;28;20033;-82
2021/06/29 12:46:30;;;;;;;4.45;1.27;;;19.30;99.90;;;;;;5006274;28;20121;-81
2021/06/29 12:48:59;;;;;;;3.33;1.23;;;19.20;99.90;;;;;;5009566;28;20032;-80
2021/06/29 12:51:25;;;;;;;4.07;1.55;;;19.00;99.90;;;;;;5023354;28;20046;-82
2021/06/29 12:53:56;;;;;;;2.35;1.15;;;18.90;99.90;;;;;;5009670;28;20106;-80